createdAt,value
2018-08-03T00:01:42.206Z,5.63
2018-08-03T00:04:09.141Z,3.80
2018-08-03T00:06:36.077Z,4.47
2018-08-03T00:09:04.957Z,4.63
2018-08-03T00:11:31.886Z,7.63
2018-08-03T00:13:58.792Z,3.97
2018-08-03T00:16:25.729Z,3.83
2018-08-03T00:18:52.808Z,7.47
2018-08-03T00:21:19.723Z,8.87
2018-08-03T00:23:46.645Z,6.77
2018-08-03T00:26:13.573Z,4.33
2018-08-03T00:28:40.492Z,4.90
2018-08-03T00:31:07.417Z,5.30
2018-08-03T00:33:34.350Z,3.83
2018-08-03T00:36:01.261Z,5.27
2018-08-03T00:38:28.156Z,3.90
2018-08-03T00:40:55.080Z,3.37
2018-08-03T00:43:21.979Z,3.70
2018-08-03T00:45:48.923Z,6.20
2018-08-03T00:48:15.823Z,5.17
2018-08-03T00:50:42.744Z,7.03
2018-08-03T00:53:09.642Z,6.57
2018-08-03T00:55:36.555Z,5.67
2018-08-03T00:58:03.476Z,4.17
2018-08-03T01:00:30.408Z,3.93
2018-08-03T01:02:57.355Z,4.00
2018-08-03T01:05:24.289Z,5.80
2018-08-03T01:07:51.245Z,4.03
2018-08-03T01:10:18.199Z,4.60
2018-08-03T01:12:46.541Z,3.93
2018-08-03T01:15:13.523Z,5.33
2018-08-03T01:17:40.468Z,4.43
2018-08-03T01:20:07.393Z,4.70
2018-08-03T01:22:34.312Z,6.10
2018-08-03T01:25:01.240Z,5.17
2018-08-03T01:27:28.144Z,5.20
2018-08-03T01:29:55.079Z,5.23
2018-08-03T01:32:22.005Z,5.23
2018-08-03T01:34:48.935Z,5.37
2018-08-03T01:37:15.843Z,5.87
2018-08-03T01:39:42.767Z,7.30
2018-08-03T01:42:09.687Z,6.50
2018-08-03T01:44:37.367Z,6.27
2018-08-03T01:47:04.324Z,6.33
2018-08-03T01:49:31.252Z,5.80
2018-08-03T01:51:58.240Z,5.37
2018-08-03T01:54:25.165Z,6.77
2018-08-03T01:56:52.096Z,6.87
2018-08-03T01:59:19.028Z,9.23
2018-08-03T02:01:45.957Z,5.43
2018-08-03T02:04:12.899Z,4.63
2018-08-03T02:06:39.819Z,6.30
2018-08-03T02:09:07.450Z,6.10
2018-08-03T02:11:34.426Z,5.67
2018-08-03T02:14:01.338Z,4.50
2018-08-03T02:16:28.336Z,5.63
2018-08-03T02:18:55.273Z,5.27
2018-08-03T02:21:22.208Z,4.23
2018-08-03T02:23:49.135Z,4.83
2018-08-03T02:26:16.085Z,4.83
2018-08-03T02:28:43.017Z,6.43
2018-08-03T02:31:10.013Z,5.50
2018-08-03T02:33:36.943Z,7.47
2018-08-03T02:36:03.873Z,6.33
2018-08-03T02:38:30.797Z,5.73
2018-08-03T02:40:57.753Z,6.20
2018-08-03T02:43:24.695Z,6.40
2018-08-03T02:45:51.617Z,5.70
2018-08-03T02:48:18.541Z,7.70
2018-08-03T02:50:45.476Z,7.77
2018-08-03T02:53:12.409Z,6.40
2018-08-03T02:55:39.342Z,5.43
2018-08-03T02:58:06.256Z,6.13
2018-08-03T03:00:33.208Z,5.60
2018-08-03T03:03:00.144Z,7.33
2018-08-03T03:05:27.070Z,6.33
2018-08-03T03:07:53.988Z,5.57
2018-08-03T03:10:20.911Z,8.43
2018-08-03T03:12:47.832Z,5.90
2018-08-03T03:15:14.740Z,5.40
2018-08-03T03:17:41.672Z,6.07
2018-08-03T03:20:08.576Z,7.10
2018-08-03T03:22:35.504Z,6.80
2018-08-03T03:25:02.461Z,7.53
2018-08-03T03:27:29.370Z,6.93
2018-08-03T03:29:56.273Z,8.10
2018-08-03T03:32:23.185Z,7.43
2018-08-03T03:34:50.104Z,7.03
2018-08-03T03:37:17.423Z,7.10
2018-08-03T03:39:44.948Z,8.47
2018-08-03T03:42:11.900Z,7.90
2018-08-03T03:44:38.797Z,11.93
2018-08-03T03:47:05.720Z,14.67
2018-08-03T03:49:32.645Z,13.33
2018-08-03T03:51:59.568Z,15.70
2018-08-03T03:54:26.480Z,12.20
2018-08-03T03:56:53.401Z,13.97
2018-08-03T03:59:20.351Z,11.10
2018-08-03T04:01:47.236Z,12.27
2018-08-03T04:04:14.128Z,9.80
2018-08-03T04:06:41.032Z,8.97
2018-08-03T04:09:09.568Z,9.13
2018-08-03T04:11:36.515Z,10.17
2018-08-03T04:14:03.428Z,9.97
2018-08-03T04:16:30.328Z,9.70
2018-08-03T04:18:57.241Z,10.50
2018-08-03T04:21:24.167Z,9.07
2018-08-03T04:23:51.088Z,10.23
2018-08-03T04:26:18.009Z,8.53
2018-08-03T04:28:44.948Z,10.67
2018-08-03T04:31:11.864Z,8.60
2018-08-03T04:33:38.780Z,10.87
2018-08-03T04:36:05.751Z,10.07
2018-08-03T04:38:32.680Z,10.40
2018-08-03T04:40:59.640Z,11.70
2018-08-03T04:43:26.570Z,10.70
2018-08-03T04:45:53.477Z,10.70
2018-08-03T04:48:20.400Z,9.77
2018-08-03T04:50:47.352Z,13.43
2018-08-03T04:53:14.291Z,10.00
2018-08-03T04:55:41.241Z,10.97
2018-08-03T04:58:08.173Z,10.70
2018-08-03T05:00:35.090Z,9.63
2018-08-03T05:03:02.032Z,10.13
2018-08-03T05:05:28.978Z,9.47
2018-08-03T05:07:55.898Z,9.70
2018-08-03T05:10:22.855Z,9.50
2018-08-03T05:12:49.772Z,9.47
2018-08-03T05:15:16.673Z,9.37
2018-08-03T05:17:43.624Z,10.03
2018-08-03T05:20:10.549Z,9.30
2018-08-03T05:22:37.469Z,8.93
2018-08-03T05:25:04.712Z,9.27
2018-08-03T05:27:32.177Z,8.50
2018-08-03T05:29:59.237Z,8.67
2018-08-03T05:32:26.171Z,12.03
2018-08-03T05:34:53.105Z,8.37
2018-08-03T05:37:20.043Z,8.83
2018-08-03T05:39:47.000Z,8.90
2018-08-03T05:42:13.968Z,9.00
2018-08-03T05:44:40.868Z,7.97
2018-08-03T05:47:07.798Z,8.33
2018-08-03T05:49:34.697Z,10.50
2018-08-03T05:52:01.659Z,8.60
2018-08-03T05:54:28.599Z,8.50
2018-08-03T05:56:55.512Z,8.73
2018-08-03T05:59:22.469Z,8.30
2018-08-03T06:01:49.632Z,11.13
2018-08-03T06:04:16.571Z,7.60
2018-08-03T06:06:43.492Z,8.13
2018-08-03T06:09:11.088Z,8.00
2018-08-03T06:11:38.078Z,8.03
2018-08-03T06:14:05.716Z,7.73
2018-08-03T06:16:32.946Z,6.63
2018-08-03T06:18:59.885Z,8.23
2018-08-03T06:21:26.826Z,7.87
2018-08-03T06:23:53.783Z,8.33
2018-08-03T06:26:20.686Z,8.50
2018-08-03T06:28:47.612Z,7.40
2018-08-03T06:31:14.553Z,7.43
2018-08-03T06:33:41.472Z,8.03
2018-08-03T06:36:08.376Z,8.30
2018-08-03T06:38:35.281Z,6.83
2018-08-03T06:41:02.201Z,6.23
2018-08-03T06:43:29.137Z,7.47
2018-08-03T06:45:56.119Z,6.30
2018-08-03T06:48:23.064Z,7.33
2018-08-03T06:50:49.950Z,7.00
2018-08-03T06:53:16.873Z,4.80
2018-08-03T06:55:43.768Z,4.77
2018-08-03T06:58:10.700Z,7.67
2018-08-03T07:00:37.631Z,7.07
2018-08-03T07:03:04.564Z,4.77
2018-08-03T07:05:31.497Z,4.77
2018-08-03T07:07:58.438Z,5.33
2018-08-03T07:10:25.340Z,4.30
2018-08-03T07:12:52.613Z,7.87
2018-08-03T07:15:19.539Z,4.17
2018-08-03T07:17:46.465Z,5.37
2018-08-03T07:20:13.469Z,7.40
2018-08-03T07:22:40.353Z,5.23
2018-08-03T07:25:07.311Z,6.37
2018-08-03T07:27:34.224Z,9.03
2018-08-03T07:30:01.185Z,9.07
2018-08-03T07:32:28.114Z,6.43
2018-08-03T07:34:55.105Z,4.47
2018-08-03T07:37:22.102Z,5.87
2018-08-03T07:39:49.078Z,5.97
2018-08-03T07:42:16.042Z,5.83
2018-08-03T07:44:43.032Z,6.50
2018-08-03T07:47:10.496Z,6.33
2018-08-03T07:49:37.450Z,6.63
2018-08-03T07:52:04.709Z,7.70
2018-08-03T07:54:31.655Z,5.93
2018-08-03T07:56:58.565Z,5.23
2018-08-03T07:59:25.519Z,8.27
2018-08-03T08:01:52.458Z,4.53
2018-08-03T08:04:19.378Z,7.97
2018-08-03T08:06:46.309Z,3.70
2018-08-03T08:09:13.288Z,6.03
2018-08-03T08:11:40.305Z,4.63
2018-08-03T08:14:07.640Z,5.20
2018-08-03T08:16:34.658Z,6.77
2018-08-03T08:19:01.733Z,4.30
2018-08-03T08:21:28.654Z,5.83
2018-08-03T08:23:55.689Z,7.67
2018-08-03T08:26:22.595Z,4.80
2018-08-03T08:28:49.617Z,6.10
2018-08-03T08:31:16.569Z,6.43
2018-08-03T08:33:43.496Z,6.40
2018-08-03T08:36:10.404Z,5.63
2018-08-03T08:38:37.317Z,3.67
2018-08-03T08:41:04.250Z,6.27
2018-08-03T08:43:31.233Z,8.07
2018-08-03T08:45:58.113Z,6.37
2018-08-03T08:48:25.027Z,6.17
2018-08-03T08:50:51.995Z,5.77
2018-08-03T08:53:18.952Z,4.83
2018-08-03T08:55:45.925Z,4.17
2018-08-03T08:58:12.844Z,6.27
2018-08-03T09:00:39.806Z,7.90
2018-08-03T09:03:06.721Z,9.63
2018-08-03T09:05:33.649Z,7.37
2018-08-03T09:08:00.600Z,4.93
2018-08-03T09:10:27.530Z,4.23
2018-08-03T09:12:54.431Z,4.47
2018-08-03T09:15:21.350Z,7.23
2018-08-03T09:17:48.260Z,4.87
2018-08-03T09:20:15.188Z,6.13
2018-08-03T09:22:42.105Z,4.70
2018-08-03T09:25:09.056Z,4.67
2018-08-03T09:27:35.985Z,7.20
2018-08-03T09:30:02.961Z,5.63
2018-08-03T09:32:29.876Z,4.87
2018-08-03T09:34:56.824Z,6.67
2018-08-03T09:37:23.752Z,5.47
2018-08-03T09:39:50.970Z,4.47
2018-08-03T09:42:17.900Z,5.37
2018-08-03T09:44:44.864Z,4.60
2018-08-03T09:47:11.790Z,5.03
2018-08-03T09:49:38.733Z,5.20
2018-08-03T09:52:05.732Z,5.00
2018-08-03T09:54:32.720Z,5.10
2018-08-03T09:56:59.606Z,4.10
2018-08-03T09:59:26.508Z,6.77
2018-08-03T10:01:53.493Z,6.57
2018-08-03T10:04:20.364Z,5.17
2018-08-03T10:06:47.283Z,5.53
2018-08-03T10:09:14.324Z,3.53
2018-08-03T10:11:41.271Z,6.50
2018-08-03T10:14:08.265Z,4.80
2018-08-03T10:16:35.225Z,6.17
2018-08-03T10:19:02.145Z,5.47
2018-08-03T10:21:29.114Z,6.27
2018-08-03T10:23:56.067Z,9.77
2018-08-03T10:26:23.009Z,5.70
2018-08-03T10:28:49.936Z,6.37
2018-08-03T10:31:16.872Z,3.97
2018-08-03T10:33:43.820Z,4.47
2018-08-03T10:36:10.890Z,4.97
2018-08-03T10:38:37.816Z,6.00
2018-08-03T10:41:04.751Z,3.70
2018-08-03T10:43:31.720Z,4.53
2018-08-03T10:45:58.685Z,5.70
2018-08-03T10:48:25.613Z,6.97
2018-08-03T10:50:52.558Z,4.27
2018-08-03T10:53:19.467Z,4.80
2018-08-03T10:55:46.413Z,4.50
2018-08-03T10:58:13.356Z,6.10
2018-08-03T11:00:40.288Z,5.83
2018-08-03T11:03:07.211Z,3.83
2018-08-03T11:05:34.173Z,7.67
2018-08-03T11:08:01.111Z,7.00
2018-08-03T11:10:28.077Z,3.87
2018-08-03T11:12:55.018Z,6.73
2018-08-03T11:15:21.984Z,4.80
2018-08-03T11:17:49.925Z,4.20
2018-08-03T11:20:17.224Z,4.70
2018-08-03T11:22:44.628Z,4.43
2018-08-03T11:25:11.561Z,4.20
2018-08-03T11:27:38.596Z,5.67
2018-08-03T11:30:06.924Z,5.37
2018-08-03T11:32:33.926Z,4.40
2018-08-03T11:35:01.042Z,7.53
2018-08-03T11:37:28.209Z,6.73
2018-08-03T11:39:55.295Z,4.07
2018-08-03T11:42:22.390Z,4.17
2018-08-03T11:44:50.086Z,5.77
2018-08-03T11:47:18.332Z,7.57
2018-08-03T11:49:48.283Z,5.27
2018-08-03T11:52:20.578Z,5.43
2018-08-03T11:54:50.753Z,5.37
2018-08-03T11:57:21.172Z,5.80
2018-08-03T11:59:51.621Z,5.33
2018-08-03T12:02:18.628Z,5.07
2018-08-03T12:04:46.553Z,5.37
2018-08-03T12:07:13.624Z,4.83
2018-08-03T12:09:40.588Z,5.30
2018-08-03T12:12:07.913Z,8.17
2018-08-03T12:14:34.824Z,6.40
2018-08-03T12:17:03.074Z,8.40
2018-08-03T12:19:30.978Z,8.03
2018-08-03T12:21:59.004Z,5.17
2018-08-03T12:24:25.936Z,5.53
2018-08-03T12:26:53.209Z,5.93
2018-08-03T12:29:20.540Z,4.67
2018-08-03T12:31:47.976Z,10.23
2018-08-03T12:34:16.086Z,18.80
2018-08-03T12:36:44.180Z,6.17
2018-08-03T12:39:11.757Z,7.87
2018-08-03T12:41:38.845Z,8.43
2018-08-03T12:44:07.228Z,5.93
2018-08-03T12:46:34.627Z,4.97
2018-08-03T12:49:02.009Z,7.43
2018-08-03T12:51:29.230Z,5.83
2018-08-03T12:53:57.822Z,7.27
2018-08-03T12:56:26.383Z,4.80
2018-08-03T12:58:54.523Z,8.10
2018-08-03T13:01:23.645Z,6.93
2018-08-03T13:03:54.169Z,5.80
2018-08-03T13:06:26.863Z,6.97
2018-08-03T13:08:55.576Z,4.40
2018-08-03T13:11:22.493Z,3.43
2018-08-03T13:13:49.824Z,4.97
2018-08-03T13:16:16.769Z,5.60
2018-08-03T13:18:43.704Z,4.17
2018-08-03T13:21:22.328Z,7.27
2018-08-03T13:23:53.311Z,6.47
2018-08-03T13:26:20.319Z,5.20
2018-08-03T13:28:47.235Z,4.10
2018-08-03T13:31:14.164Z,6.30
2018-08-03T13:33:41.124Z,7.77
2018-08-03T13:36:08.028Z,13.57
2018-08-03T13:38:34.953Z,18.53
2018-08-03T13:41:01.870Z,6.40
2018-08-03T13:43:28.797Z,4.43
2018-08-03T13:45:55.721Z,5.83
2018-08-03T13:48:22.636Z,7.33
2018-08-03T13:50:50.809Z,11.93
2018-08-03T13:53:17.881Z,6.97
2018-08-03T13:55:45.809Z,4.93
2018-08-03T13:58:12.925Z,3.70
2018-08-03T14:00:48.221Z,6.70
2018-08-03T14:03:18.313Z,6.20
2018-08-03T14:05:48.346Z,10.63
2018-08-03T14:08:17.043Z,4.10
2018-08-03T14:10:46.303Z,4.30
2018-08-03T14:13:13.290Z,6.60
2018-08-03T14:15:40.240Z,4.50
2018-08-03T14:18:07.176Z,4.80
2018-08-03T14:20:34.124Z,3.40
2018-08-03T14:23:01.074Z,6.50
2018-08-03T14:25:28.062Z,5.00
2018-08-03T14:27:54.939Z,5.83
2018-08-03T14:30:21.875Z,4.63
2018-08-03T14:32:48.835Z,4.33
2018-08-03T14:35:15.780Z,3.90
2018-08-03T14:37:42.728Z,4.53
2018-08-03T14:40:09.674Z,6.53
2018-08-03T14:42:36.607Z,4.10
2018-08-03T14:45:04.845Z,5.73
2018-08-03T14:47:31.773Z,3.33
2018-08-03T14:49:58.702Z,4.30
2018-08-03T14:52:25.600Z,5.13
2018-08-03T14:54:52.552Z,4.90
2018-08-03T14:57:19.456Z,4.70
2018-08-03T14:59:46.378Z,5.23
2018-08-03T15:02:13.297Z,6.63
2018-08-03T15:04:40.233Z,3.33
2018-08-03T15:07:07.133Z,5.93
2018-08-03T15:09:34.045Z,4.33
2018-08-03T15:12:00.984Z,4.03
2018-08-03T15:14:27.916Z,5.27
2018-08-03T15:16:54.851Z,3.27
2018-08-03T15:19:21.796Z,7.20
2018-08-03T15:21:48.720Z,3.30
2018-08-03T15:24:15.621Z,4.27
2018-08-03T15:26:42.523Z,4.10
2018-08-03T15:29:09.464Z,4.93
2018-08-03T15:31:36.367Z,3.20
2018-08-03T15:34:03.306Z,5.20
2018-08-03T15:36:30.200Z,4.73
2018-08-03T15:38:57.118Z,4.73
2018-08-03T15:41:24.036Z,4.37
2018-08-03T15:43:50.999Z,5.00
2018-08-03T15:46:17.929Z,5.77
2018-08-03T15:48:44.857Z,3.40
2018-08-03T15:51:11.748Z,4.90
2018-08-03T15:53:38.664Z,4.17
2018-08-03T15:58:47.965Z,4.57
2018-08-03T16:01:14.892Z,6.00
2018-08-03T16:03:41.837Z,3.67
2018-08-03T16:06:08.749Z,3.10
2018-08-03T16:08:35.648Z,5.43
2018-08-03T16:11:02.583Z,8.03
2018-08-03T16:13:29.498Z,6.23
2018-08-03T16:15:56.437Z,7.00
2018-08-03T16:18:23.367Z,10.63
2018-08-03T16:20:50.357Z,4.50
2018-08-03T16:23:17.264Z,3.40
2018-08-03T16:25:44.536Z,5.27
2018-08-03T16:28:11.468Z,5.13
2018-08-03T16:30:40.138Z,2.30
2018-08-03T16:33:07.111Z,3.97
2018-08-03T16:35:34.018Z,3.27
2018-08-03T16:38:00.957Z,3.90
2018-08-03T16:40:27.865Z,4.90
2018-08-03T16:42:54.775Z,6.07
2018-08-03T16:45:21.760Z,6.67
2018-08-03T16:47:48.699Z,4.67
2018-08-03T16:50:15.612Z,3.67
2018-08-03T16:52:42.516Z,3.30
2018-08-03T16:55:09.423Z,5.40
2018-08-03T16:57:36.325Z,2.30
2018-08-03T17:00:03.816Z,4.83
2018-08-03T17:02:30.721Z,2.73
2018-08-03T17:04:57.632Z,3.33
2018-08-03T17:07:24.515Z,3.67
2018-08-03T17:09:51.461Z,2.97
2018-08-03T17:12:18.394Z,3.83
2018-08-03T17:14:45.333Z,2.03
2018-08-03T17:17:12.225Z,3.20
2018-08-03T17:19:39.147Z,3.97
2018-08-03T17:22:06.053Z,4.20
2018-08-03T17:24:32.965Z,4.27
2018-08-03T17:26:59.893Z,5.10
2018-08-03T17:29:26.792Z,5.00
2018-08-03T17:31:53.768Z,2.30
2018-08-03T17:34:20.628Z,2.80
2018-08-03T17:36:47.600Z,3.97
2018-08-03T17:39:14.480Z,3.37
2018-08-03T17:41:41.401Z,5.50
2018-08-03T17:44:08.331Z,3.60
2018-08-03T17:46:35.208Z,2.20
2018-08-03T17:49:02.113Z,2.53
2018-08-03T17:51:29.021Z,2.57
2018-08-03T17:53:55.943Z,1.70
2018-08-03T17:56:22.904Z,2.10
2018-08-03T17:58:49.812Z,2.80
2018-08-03T18:01:16.810Z,4.83
2018-08-03T18:03:43.680Z,2.73
2018-08-03T18:06:10.640Z,4.63
2018-08-03T18:08:37.548Z,5.03
2018-08-03T18:11:04.476Z,3.63
2018-08-03T18:13:31.423Z,2.60
2018-08-03T18:15:58.420Z,3.40
2018-08-03T18:18:25.264Z,3.03
2018-08-03T18:20:52.185Z,2.00
2018-08-03T18:23:19.091Z,3.87
2018-08-03T18:25:46.116Z,4.33
2018-08-03T18:28:13.040Z,3.90
2018-08-03T18:30:39.967Z,2.23
2018-08-03T18:33:06.918Z,1.30
2018-08-03T18:35:33.877Z,2.33
2018-08-03T18:38:00.855Z,1.93
2018-08-03T18:40:27.802Z,3.40
2018-08-03T18:42:54.720Z,3.43
2018-08-03T18:45:21.626Z,1.63
2018-08-03T18:47:48.537Z,2.37
2018-08-03T18:50:15.449Z,1.63
2018-08-03T18:52:42.377Z,1.43
2018-08-03T18:55:09.326Z,1.70
2018-08-03T18:57:36.291Z,2.30
2018-08-03T19:00:03.716Z,1.63
2018-08-03T19:02:30.658Z,1.83
2018-08-03T19:04:57.562Z,1.67
2018-08-03T19:07:24.492Z,3.53
2018-08-03T19:09:51.457Z,2.63
2018-08-03T19:12:18.372Z,5.03
2018-08-03T19:14:45.280Z,3.77
2018-08-03T19:17:12.213Z,3.60
2018-08-03T19:19:39.187Z,2.33
2018-08-03T19:22:06.152Z,3.23
2018-08-03T19:24:33.082Z,1.60
2018-08-03T19:27:00.057Z,2.13
2018-08-03T19:29:26.988Z,3.20
2018-08-03T19:31:53.932Z,2.13
2018-08-03T19:34:20.856Z,4.60
2018-08-03T19:36:47.805Z,2.17
2018-08-03T19:39:14.692Z,3.40
2018-08-03T19:41:41.616Z,3.23
2018-08-03T19:44:08.531Z,3.43
2018-08-03T19:46:35.569Z,1.90
2018-08-03T19:49:02.476Z,3.60
2018-08-03T19:51:29.393Z,1.97
2018-08-03T19:53:56.329Z,3.03
2018-08-03T19:56:23.285Z,3.00
2018-08-03T19:58:50.336Z,3.43
2018-08-03T20:01:17.260Z,2.47
2018-08-03T20:03:44.189Z,2.90
2018-08-03T20:06:11.093Z,2.70
2018-08-03T20:08:38.031Z,3.10
2018-08-03T20:11:04.980Z,3.03
2018-08-03T20:13:31.974Z,3.10
2018-08-03T20:15:58.825Z,3.63
2018-08-03T20:18:25.749Z,6.10
2018-08-03T20:20:52.738Z,3.27
2018-08-03T20:23:19.687Z,4.33
2018-08-03T20:25:46.636Z,2.50
2018-08-03T20:28:13.588Z,1.70
2018-08-03T20:30:40.628Z,2.07
2018-08-03T20:33:07.556Z,2.27
2018-08-03T20:35:34.501Z,4.67
2018-08-03T20:38:01.585Z,2.20
2018-08-03T20:40:28.536Z,2.23
2018-08-03T20:42:55.463Z,2.80
2018-08-03T20:45:22.391Z,1.87
2018-08-03T20:47:49.364Z,2.57
2018-08-03T20:50:16.277Z,2.07
2018-08-03T20:52:43.196Z,2.90
2018-08-03T20:55:10.108Z,2.17
2018-08-03T20:57:37.037Z,3.37
2018-08-03T21:00:04.681Z,2.27
2018-08-03T21:02:31.620Z,2.83
2018-08-03T21:04:58.531Z,3.53
2018-08-03T21:07:25.472Z,2.47
2018-08-03T21:09:52.365Z,2.50
2018-08-03T21:12:19.301Z,3.10
2018-08-03T21:14:46.246Z,4.00
2018-08-03T21:17:13.232Z,2.57
2018-08-03T21:19:40.141Z,3.93
2018-08-03T21:22:07.113Z,2.77
2018-08-03T21:24:34.028Z,4.77
2018-08-03T21:27:00.940Z,2.90
2018-08-03T21:29:27.884Z,2.70
2018-08-03T21:31:54.791Z,5.30
2018-08-03T21:34:21.720Z,3.17
2018-08-03T21:36:48.636Z,6.43
2018-08-03T21:39:15.572Z,9.03
2018-08-03T21:41:42.492Z,2.17
2018-08-03T21:44:09.415Z,3.50
2018-08-03T21:46:36.329Z,4.00
2018-08-03T21:49:03.590Z,3.00
2018-08-03T21:51:30.485Z,4.17
2018-08-03T21:53:57.423Z,2.20
2018-08-03T21:56:24.417Z,4.57
2018-08-03T21:58:51.351Z,3.27
2018-08-03T22:01:18.305Z,2.60
2018-08-03T22:03:45.255Z,2.17
2018-08-03T22:06:12.171Z,2.57
2018-08-03T22:08:39.255Z,4.03
2018-08-03T22:11:06.167Z,2.90
2018-08-03T22:13:33.224Z,5.23
2018-08-03T22:16:00.177Z,4.37
2018-08-03T22:18:27.361Z,3.00
2018-08-03T22:20:55.134Z,2.20
2018-08-03T22:23:22.789Z,3.97
2018-08-03T22:25:49.745Z,5.50
2018-08-03T22:28:17.204Z,2.67
2018-08-03T22:30:44.902Z,3.93
2018-08-03T22:33:12.297Z,4.37
2018-08-03T22:35:39.692Z,3.63
2018-08-03T22:38:07.752Z,2.10
2018-08-03T22:40:34.704Z,2.07
2018-08-03T22:43:01.629Z,4.53
2018-08-03T22:45:28.668Z,2.80
2018-08-03T22:47:55.570Z,2.87
2018-08-03T22:50:22.518Z,2.17
2018-08-03T22:52:49.462Z,2.10
2018-08-03T22:55:16.500Z,3.80
2018-08-03T22:57:43.456Z,3.27
2018-08-03T23:00:10.572Z,3.43
2018-08-03T23:02:37.529Z,2.63
2018-08-03T23:05:04.558Z,3.10
2018-08-03T23:07:31.987Z,2.83
2018-08-03T23:10:00.623Z,3.90
2018-08-03T23:12:28.500Z,4.50
2018-08-03T23:14:56.470Z,2.73
2018-08-03T23:17:23.729Z,2.07
2018-08-03T23:19:50.671Z,3.50
2018-08-03T23:22:17.575Z,2.83
2018-08-03T23:24:44.511Z,5.40
2018-08-03T23:27:11.460Z,2.23
2018-08-03T23:29:38.396Z,3.67
2018-08-03T23:32:05.340Z,5.20
2018-08-03T23:34:32.261Z,4.33
2018-08-03T23:36:59.196Z,2.93
2018-08-03T23:39:26.117Z,3.93
2018-08-03T23:41:53.039Z,3.93
2018-08-03T23:44:19.945Z,3.20
2018-08-03T23:46:46.888Z,2.83
2018-08-03T23:49:13.804Z,3.77
2018-08-03T23:51:40.705Z,2.30
2018-08-03T23:54:07.616Z,2.70
2018-08-03T23:56:34.513Z,7.20
2018-08-03T23:59:01.461Z,3.77
